Time;durP1;ratioP1;P1;durP2;ratioP2;P2;SDS_P1;SDS_P2;PMS_P1;PMS_P2;Temp;Humidity;BMP_temperature;BMP_pressure;BME280_temperature;BME280_humidity;BME280_pressure;Samples;Min_cycle;Max_cycle;Signal;HPM_P1;HPM_P2
2022/01/07 00:01:45;;;;;;;18.47;9.53;;;;;;;0.97;100.00;98014.45;1711039;82;20995;-75
2022/01/07 00:04:12;;;;;;;17.47;9.83;;;;;;;0.93;100.00;98023.25;1666646;85;21069;-75
2022/01/07 00:06:40;;;;;;;16.77;9.60;;;;;;;0.90;100.00;98040.89;1701157;84;21045;-75
2022/01/07 00:09:07;;;;;;;17.83;9.53;;;;;;;0.89;100.00;98045.03;1695938;85;21011;-75
2022/01/07 00:11:34;;;;;;;16.13;8.70;;;;;;;0.87;100.00;98043.03;1640414;87;21087;-75
2022/01/07 00:14:03;;;;;;;16.17;8.83;;;;;;;0.85;100.00;98041.86;1659429;86;21061;-75
2022/01/07 00:16:30;;;;;;;17.43;9.37;;;;;;;0.84;100.00;98043.34;1655032;87;21089;-76
2022/01/07 00:18:57;;;;;;;17.93;9.73;;;;;;;0.83;100.00;98052.30;1623756;86;21060;-75
2022/01/07 00:21:24;;;;;;;16.83;8.80;;;;;;;0.80;100.00;98049.95;1662456;86;21075;-75
2022/01/07 00:23:51;;;;;;;15.70;8.43;;;;;;;0.77;100.00;98048.95;1662344;86;21091;-74
2022/01/07 00:26:19;;;;;;;17.53;9.03;;;;;;;0.73;100.00;98045.78;1640062;87;21501;-76
2022/01/07 00:28:46;;;;;;;16.33;8.40;;;;;;;0.69;100.00;98054.57;1681921;85;21011;-75
2022/01/07 00:31:13;;;;;;;18.80;9.00;;;;;;;0.67;100.00;98055.20;1649672;86;21084;-76
2022/01/07 00:33:40;;;;;;;19.53;9.30;;;;;;;0.67;100.00;98059.69;1649788;86;21051;-75
2022/01/07 00:36:08;;;;;;;16.07;8.37;;;;;;;0.65;100.00;98060.34;1649467;85;21023;-75
2022/01/07 00:38:35;;;;;;;13.37;8.17;;;;;;;0.65;100.00;98057.69;1679105;85;21511;-76
2022/01/07 00:41:03;;;;;;;15.90;8.30;;;;;;;0.66;100.00;98060.70;1683708;85;21047;-76
2022/01/07 00:43:31;;;;;;;16.17;8.33;;;;;;;0.67;100.00;98057.03;1673781;85;21077;-75
2022/01/07 00:45:58;;;;;;;16.57;8.93;;;;;;;0.67;100.00;98068.50;1683494;85;21134;-75
2022/01/07 00:48:25;;;;;;;18.60;9.43;;;;;;;0.67;100.00;98088.95;1673835;85;20994;-76
2022/01/07 00:50:52;;;;;;;19.07;9.20;;;;;;;0.66;100.00;98090.78;1651016;84;21051;-76
2022/01/07 00:53:20;;;;;;;18.73;9.60;;;;;;;0.65;100.00;98091.77;1683585;85;21026;-75
2022/01/07 00:55:47;;;;;;;18.97;9.10;;;;;;;0.63;100.00;98092.42;1683734;85;21038;-75
2022/01/07 00:58:14;;;;;;;16.67;9.03;;;;;;;0.62;100.00;98087.25;1651336;85;21007;-75
2022/01/07 01:00:41;;;;;;;18.90;9.90;;;;;;;0.60;100.00;98099.38;1684041;85;21034;-76
2022/01/07 01:03:08;;;;;;;20.23;9.90;;;;;;;0.58;100.00;98102.69;1657830;85;21535;-75
2022/01/07 01:05:36;;;;;;;18.03;9.57;;;;;;;0.56;100.00;98113.47;1657907;86;21715;-73
2022/01/07 01:08:03;;;;;;;22.50;10.40;;;;;;;0.54;100.00;98106.66;1655248;86;20997;-75
2022/01/07 01:10:30;;;;;;;22.13;10.67;;;;;;;0.52;100.00;98111.30;1656658;87;21019;-74
2022/01/07 01:12:57;;;;;;;24.90;11.47;;;;;;;0.51;100.00;98116.27;1682377;85;21014;-75
2022/01/07 01:15:26;;;;;;;22.97;11.83;;;;;;;0.51;100.00;98114.46;1690959;85;21053;-74
2022/01/07 01:17:54;;;;;;;32.60;18.30;;;;;;;0.50;100.00;98114.61;1691445;85;21120;-76
2022/01/07 01:20:22;;;;;;;37.77;21.10;;;;;;;0.49;100.00;98112.93;1691502;84;21107;-75
2022/01/07 01:22:49;;;;;;;42.50;26.30;;;;;;;0.45;100.00;98108.41;1724626;82;21105;-75
2022/01/07 01:25:16;;;;;;;40.97;25.03;;;;;;;0.45;100.00;98111.58;1749394;82;21000;-76
2022/01/07 01:27:43;;;;;;;49.27;28.63;;;;;;;0.43;100.00;98111.73;1749353;81;21071;-75
2022/01/07 01:30:12;;;;;;;50.87;30.57;;;;;;;0.41;100.00;98111.05;1742915;82;21043;-76
2022/01/07 01:32:39;;;;;;;49.47;31.67;;;;;;;0.41;100.00;98116.37;1743361;82;21004;-76
2022/01/07 01:35:07;;;;;;;60.20;35.57;;;;;;;0.42;100.00;98118.52;1749486;82;21048;-76
2022/01/07 01:37:34;;;;;;;63.20;37.83;;;;;;;0.41;100.00;98124.81;1743546;82;21047;-77
2022/01/07 01:40:05;;;;;;;66.67;37.90;;;;;;;0.41;100.00;98127.47;1749842;82;21076;-76
2022/01/07 01:42:33;;;;;;;69.83;41.83;;;;;;;0.39;100.00;98122.34;1745359;82;21074;-74
2022/01/07 01:45:00;;;;;;;62.67;40.77;;;;;;;0.39;100.00;98132.97;1749763;82;21368;-75
2022/01/07 01:47:27;;;;;;;66.07;40.23;;;;;;;0.38;100.00;98125.47;1743438;81;21063;-76
2022/01/07 01:49:55;;;;;;;63.67;39.83;;;;;;;0.38;100.00;98118.82;1743231;82;21067;-76
2022/01/07 01:52:22;;;;;;;67.53;41.27;;;;;;;0.40;100.00;98115.19;1749598;81;21024;-76
2022/01/07 01:54:49;;;;;;;61.17;37.07;;;;;;;0.37;100.00;98118.97;1743200;82;21052;-76
2022/01/07 01:57:16;;;;;;;64.90;37.43;;;;;;;0.35;100.00;98116.97;1749795;82;21055;-77
2022/01/07 01:59:43;;;;;;;54.73;32.60;;;;;;;0.35;100.00;98123.14;1743389;82;21047;-75
2022/01/07 02:02:11;;;;;;;49.67;28.83;;;;;;;0.35;100.00;98126.27;1745013;82;21010;-76
2022/01/07 02:04:39;;;;;;;43.03;25.20;;;;;;;0.33;100.00;98127.75;1726512;82;21094;-75
2022/01/07 02:07:12;;;;;;;41.20;23.93;;;;;;;0.33;100.00;98134.89;1740986;82;21034;-76
2022/01/07 02:09:39;;;;;;;40.67;24.77;;;;;;;0.30;100.00;98140.04;1726517;83;21023;-77
2022/01/07 02:12:09;;;;;;;37.97;21.90;;;;;;;0.28;100.00;98145.98;1740484;82;21085;-74
2022/01/07 02:14:36;;;;;;;37.73;20.03;;;;;;;0.25;100.00;98152.09;1726173;83;21063;-76
2022/01/07 02:17:09;;;;;;;32.47;17.53;;;;;;;0.21;100.00;98143.59;1691478;84;21037;-75
2022/01/07 02:19:39;;;;;;;32.00;17.23;;;;;;;0.17;100.00;98155.52;1672473;85;21124;-75
2022/01/07 02:22:06;;;;;;;26.90;14.57;;;;;;;0.17;100.00;98155.52;1678240;85;21480;-75
2022/01/07 02:24:35;;;;;;;29.00;14.20;;;;;;;0.15;100.00;98161.48;1677951;84;21015;-77
2022/01/07 02:27:02;;;;;;;25.20;12.50;;;;;;;0.13;100.00;98165.61;1681614;85;21073;-76
2022/01/07 02:29:29;;;;;;;23.13;11.50;;;;;;;0.15;100.00;98172.11;1658550;85;21031;-75
2022/01/07 02:31:56;;;;;;;20.93;10.30;;;;;;;0.12;100.00;98182.53;1678145;85;21011;-76
2022/01/07 02:34:23;;;;;;;20.57;10.03;;;;;;;0.13;100.00;98182.06;1678000;84;21023;-75
2022/01/07 02:36:51;;;;;;;19.37;9.27;;;;;;;0.11;100.00;98177.40;1681397;85;21071;-76
2022/01/07 02:39:18;;;;;;;20.50;8.97;;;;;;;0.09;100.00;98178.02;1705183;83;21027;-76
2022/01/07 02:41:45;;;;;;;17.43;8.63;;;;;;;0.06;100.00;98183.66;1705231;83;21025;-74
2022/01/07 02:44:12;;;;;;;18.03;8.93;;;;;;;0.07;100.00;98192.80;1705029;83;21031;-75
2022/01/07 02:46:39;;;;;;;17.33;8.13;;;;;;;0.07;100.00;98199.45;1705289;83;21059;-73
2022/01/07 02:49:15;;;;;;;16.90;8.27;;;;;;;0.05;100.00;98200.56;1705034;83;21066;-75
2022/01/07 02:51:44;;;;;;;17.97;8.27;;;;;;;0.03;100.00;98210.52;1677710;85;21042;-74
2022/01/07 02:54:11;;;;;;;15.03;7.57;;;;;;;0.03;100.00;98222.48;1677770;83;21043;-74
2022/01/07 02:56:38;;;;;;;13.03;6.93;;;;;;;-0.02;100.00;98219.78;1677535;85;21500;-75
2022/01/07 02:59:06;;;;;;;15.00;7.80;;;;;;;0.00;100.00;98232.92;1677805;84;21030;-75
2022/01/07 03:01:33;;;;;;;12.53;7.23;;;;;;;0.01;100.00;98231.09;1670891;85;21062;-74
2022/01/07 03:04:00;;;;;;;13.03;7.10;;;;;;;0.02;100.00;98237.59;1641508;85;21031;-76
2022/01/07 03:06:27;;;;;;;14.83;6.83;;;;;;;0.03;100.00;98237.09;1647069;86;21035;-74
2022/01/07 03:08:55;;;;;;;11.30;5.97;;;;;;;0.03;100.00;98239.25;1664777;86;21516;-74
2022/01/07 03:11:22;;;;;;;14.80;7.13;;;;;;;0.04;100.00;98234.29;1664537;86;21599;-76
2022/01/07 03:13:49;;;;;;;14.03;7.13;;;;;;;0.04;100.00;98243.59;1672437;86;21047;-74
2022/01/07 03:16:18;;;;;;;14.00;7.33;;;;;;;0.04;100.00;98250.73;1674480;85;21050;-73
2022/01/07 03:18:45;;;;;;;12.33;6.90;;;;;;;0.04;100.00;98252.06;1674910;84;21004;-74
2022/01/07 03:21:12;;;;;;;13.73;7.53;;;;;;;0.03;100.00;98259.18;1701168;83;21063;-72
2022/01/07 03:23:40;;;;;;;16.00;7.73;;;;;;;0.03;100.00;98254.36;1677933;85;21031;-74
2022/01/07 03:26:08;;;;;;;14.83;7.47;;;;;;;-0.02;100.00;98259.64;1701493;84;21039;-74
2022/01/07 03:28:36;;;;;;;14.30;7.03;;;;;;;-0.02;100.00;98264.95;1677775;85;21062;-73
2022/01/07 03:31:03;;;;;;;11.50;6.53;;;;;;;-0.02;100.00;98272.92;1701129;83;21130;-74
2022/01/07 03:33:30;;;;;;;13.60;6.60;;;;;;;-0.05;100.00;98275.88;1677729;85;21039;-75
2022/01/07 03:35:58;;;;;;;11.57;6.80;;;;;;;-0.06;100.00;98283.98;1678300;85;21059;-73
2022/01/07 03:38:24;;;;;;;14.40;6.83;;;;;;;-0.07;100.00;98290.27;1702990;84;20983;-74
2022/01/07 03:40:51;;;;;;;12.37;6.53;;;;;;;-0.06;100.00;98294.61;1680408;83;21038;-73
2022/01/07 03:43:18;;;;;;;13.17;6.67;;;;;;;-0.06;100.00;98289.30;1678557;85;21567;-74
2022/01/07 03:45:45;;;;;;;11.77;6.83;;;;;;;-0.07;100.00;98301.75;1677968;85;21011;-74
2022/01/07 03:48:12;;;;;;;13.23;6.80;;;;;;;-0.09;100.00;98302.40;1677879;85;21019;-73
2022/01/07 03:50:39;;;;;;;15.03;7.40;;;;;;;-0.08;100.00;98305.38;1701460;83;21072;-74
2022/01/07 03:53:06;;;;;;;13.90;7.77;;;;;;;-0.09;100.00;98302.40;1677822;85;21050;-73
2022/01/07 03:55:35;;;;;;;12.70;7.07;;;;;;;-0.09;100.00;98301.06;1677902;85;21109;-73
2022/01/07 03:58:02;;;;;;;13.33;7.20;;;;;;;-0.08;100.00;98306.70;1677703;85;21532;-74
2022/01/07 04:00:34;;;;;;;13.03;7.07;;;;;;;-0.10;100.00;98303.36;1701239;84;21011;-73
2022/01/07 04:03:07;;;;;;;13.60;7.08;;;;;;;-0.12;100.00;98313.81;1668723;84;20997;-74
2022/01/07 04:05:34;;;;;;;15.97;7.60;;;;;;;-0.15;100.00;98310.94;1732204;82;21033;-73
2022/01/07 04:08:01;;;;;;;14.20;7.40;;;;;;;-0.15;100.00;98316.25;1651456;86;21088;-72
2022/01/07 04:10:29;;;;;;;12.13;6.80;;;;;;;-0.16;100.00;98323.89;1652209;86;21050;-72
2022/01/07 04:12:57;;;;;;;15.23;7.53;;;;;;;-0.15;100.00;98330.03;1692510;83;21585;-73
2022/01/07 04:15:24;;;;;;;13.23;7.23;;;;;;;-0.16;100.00;98333.66;1695512;85;21045;-74
2022/01/07 04:17:53;;;;;;;12.90;7.70;;;;;;;-0.17;100.00;98334.16;1619148;87;21061;-73
2022/01/07 04:20:23;;;;;;;14.57;8.00;;;;;;;-0.18;100.00;98347.08;1724185;83;21654;-74
2022/01/07 04:22:52;;;;;;;13.85;7.33;;;;;;;-0.21;100.00;98347.39;1629917;88;21081;-73
2022/01/07 04:25:20;;;;;;;12.40;7.03;;;;;;;-0.21;100.00;98352.70;1629828;88;21053;-75
2022/01/07 04:27:54;;;;;;;13.30;7.57;;;;;;;-0.26;100.00;98358.44;1629794;87;21605;-73
2022/01/07 04:30:22;;;;;;;14.60;7.47;;;;;;;-0.27;100.00;98370.03;1650181;87;21101;-72
2022/01/07 04:32:49;;;;;;;12.60;7.17;;;;;;;-0.27;100.00;98372.69;1650213;85;21155;-74
2022/01/07 04:35:16;;;;;;;14.70;8.00;;;;;;;-0.27;100.00;98375.84;1650218;87;21086;-72
2022/01/07 04:37:44;;;;;;;16.10;7.73;;;;;;;-0.25;100.00;98383.17;1650348;87;21550;-72
2022/01/07 04:40:12;;;;;;;15.00;7.70;;;;;;;-0.25;100.00;98379.19;1650251;87;21591;-73
2022/01/07 04:42:40;;;;;;;15.30;8.23;;;;;;;-0.25;100.00;98384.03;1650195;87;21046;-73
2022/01/07 04:45:07;;;;;;;15.20;8.40;;;;;;;-0.26;100.00;98382.84;1628409;87;21098;-74
2022/01/07 04:47:36;;;;;;;15.07;8.27;;;;;;;-0.27;100.00;98395.77;1650369;87;21070;-73
2022/01/07 04:50:05;;;;;;;17.13;8.67;;;;;;;-0.30;100.00;98392.91;1650317;87;21674;-73
2022/01/07 04:52:33;;;;;;;12.53;7.50;;;;;;;-0.33;100.00;98397.17;1650257;85;21082;-73
2022/01/07 04:55:00;;;;;;;14.77;7.57;;;;;;;-0.36;100.00;98396.12;1650249;87;21031;-74
2022/01/07 04:57:27;;;;;;;15.97;7.53;;;;;;;-0.40;100.00;98406.19;1650267;86;21086;-73
2022/01/07 04:59:54;;;;;;;19.33;8.80;;;;;;;-0.37;100.00;98412.20;1650343;87;21087;-74
2022/01/07 05:02:21;;;;;;;32.13;15.37;;;;;;;-0.36;100.00;98416.54;1650468;85;21034;-75
2022/01/07 05:04:50;;;;;;;34.93;17.03;;;;;;;-0.39;100.00;98413.19;1628137;87;21034;-74
2022/01/07 05:07:17;;;;;;;40.33;18.97;;;;;;;-0.37;100.00;98419.69;1650276;87;21046;-72
2022/01/07 05:09:44;;;;;;;38.77;20.17;;;;;;;-0.36;100.00;98427.99;1650179;87;21086;-73
2022/01/07 05:12:11;;;;;;;36.27;17.73;;;;;;;-0.38;100.00;98440.58;1606485;86;21066;-74
2022/01/07 05:14:39;;;;;;;24.33;12.87;;;;;;;-0.36;100.00;98443.09;1713423;84;21506;-72
2022/01/07 05:17:07;;;;;;;19.73;10.40;;;;;;;-0.35;100.00;98443.43;1713173;84;21033;-73
2022/01/07 05:19:35;;;;;;;18.50;9.30;;;;;;;-0.33;100.00;98454.78;1693303;83;21050;-73
2022/01/07 05:22:02;;;;;;;19.10;9.53;;;;;;;-0.32;100.00;98457.77;1718205;82;22434;-74
2022/01/07 05:24:30;;;;;;;19.27;9.47;;;;;;;-0.28;100.00;98465.83;1717786;83;21057;-72
2022/01/07 05:26:57;;;;;;;21.03;10.57;;;;;;;-0.25;100.00;98461.06;1716638;83;21005;-73
2022/01/07 05:29:25;;;;;;;18.57;10.30;;;;;;;-0.24;100.00;98450.77;1708360;84;21514;-74
2022/01/07 05:31:53;;;;;;;19.93;10.57;;;;;;;-0.27;100.00;98460.34;1708916;84;20961;-73
2022/01/07 05:34:20;;;;;;;20.57;11.63;;;;;;;-0.28;100.00;98469.31;1716489;83;21549;-74
2022/01/07 05:36:47;;;;;;;22.23;11.03;;;;;;;-0.31;100.00;98462.94;1709491;84;20996;-72
2022/01/07 05:39:14;;;;;;;21.53;10.87;;;;;;;-0.31;100.00;98476.72;1711947;84;21048;-73
2022/01/07 05:41:41;;;;;;;20.33;10.80;;;;;;;-0.34;100.00;98484.96;1718952;82;21017;-72
2022/01/07 05:44:08;;;;;;;18.57;9.57;;;;;;;-0.37;100.00;98494.06;1709296;84;21462;-73
2022/01/07 05:46:36;;;;;;;21.03;10.77;;;;;;;-0.39;100.00;98507.94;1692342;84;21029;-72
2022/01/07 05:49:03;;;;;;;22.57;11.83;;;;;;;-0.39;100.00;98513.25;1715903;83;21059;-74
2022/01/07 05:51:31;;;;;;;25.90;12.07;;;;;;;-0.43;100.00;98521.98;1708668;84;21577;-74
2022/01/07 05:53:58;;;;;;;22.67;12.17;;;;;;;-0.43;100.00;98525.97;1716802;83;21017;-73
2022/01/07 05:56:26;;;;;;;23.40;11.57;;;;;;;-0.45;100.00;98537.22;1708508;84;21509;-74
2022/01/07 05:58:53;;;;;;;21.90;10.80;;;;;;;-0.47;100.00;98538.35;1716379;82;21016;-73
2022/01/07 06:01:20;;;;;;;20.37;10.03;;;;;;;-0.49;100.00;98543.80;1716138;83;21009;-73
2022/01/07 06:03:47;;;;;;;18.73;9.47;;;;;;;-0.49;100.00;98542.97;1716261;83;21466;-74
2022/01/07 06:06:14;;;;;;;17.67;9.60;;;;;;;-0.50;100.00;98555.38;1708815;84;20997;-73
2022/01/07 06:08:41;;;;;;;17.93;9.70;;;;;;;-0.50;100.00;98554.05;1708756;84;21072;-73
2022/01/07 06:11:08;;;;;;;21.23;9.90;;;;;;;-0.49;100.00;98558.90;1709010;82;21009;-74
2022/01/07 06:13:37;;;;;;;18.30;9.10;;;;;;;-0.47;100.00;98561.75;1711287;83;21072;-72
2022/01/07 06:16:04;;;;;;;17.37;9.00;;;;;;;-0.45;100.00;98564.28;1713281;82;21075;-73
2022/01/07 06:18:31;;;;;;;18.67;9.87;;;;;;;-0.45;100.00;98566.93;1711810;82;21012;-73
2022/01/07 06:20:58;;;;;;;18.23;9.80;;;;;;;-0.47;100.00;98571.05;1715990;82;21016;-73
2022/01/07 06:23:25;;;;;;;19.53;9.63;;;;;;;-0.47;100.00;98577.69;1740427;82;21067;-72
2022/01/07 06:25:54;;;;;;;18.87;10.00;;;;;;;-0.46;100.00;98578.52;1742765;82;21063;-73
2022/01/07 06:28:21;;;;;;;20.07;10.63;;;;;;;-0.45;100.00;98591.66;1740475;81;21012;-73
2022/01/07 06:30:48;;;;;;;19.23;10.00;;;;;;;-0.44;100.00;98593.36;1743197;82;21044;-73
2022/01/07 06:33:15;;;;;;;21.23;10.53;;;;;;;-0.40;100.00;98597.91;1740678;82;21028;-73
2022/01/07 06:35:42;;;;;;;20.10;10.47;;;;;;;-0.36;100.00;98599.80;1743087;81;21055;-73
2022/01/07 06:38:09;;;;;;;21.73;10.87;;;;;;;-0.35;100.00;98593.03;1740573;82;21036;-73
2022/01/07 06:40:36;;;;;;;19.93;11.07;;;;;;;-0.31;100.00;98595.75;1740417;82;21087;-73
2022/01/07 06:43:05;;;;;;;23.60;11.83;;;;;;;-0.28;100.00;98606.61;1743131;82;21536;-74
2022/01/07 06:45:31;;;;;;;22.37;11.33;;;;;;;-0.25;100.00;98603.66;1740373;82;21020;-73
2022/01/07 06:47:59;;;;;;;22.73;11.33;;;;;;;-0.22;100.00;98610.86;1742980;82;21048;-73
2022/01/07 06:50:26;;;;;;;19.33;10.37;;;;;;;-0.16;100.00;98623.25;1742756;82;21010;-73
2022/01/07 06:52:53;;;;;;;18.67;10.40;;;;;;;-0.13;100.00;98619.82;1743083;82;21004;-74
2022/01/07 06:55:23;;;;;;;21.37;11.87;;;;;;;-0.09;100.00;98627.03;1740539;82;21036;-73
2022/01/07 06:57:50;;;;;;;30.70;18.90;;;;;;;-0.06;100.00;98630.25;1742366;82;21054;-74
2022/01/07 07:00:18;;;;;;;23.13;11.23;;;;;;;-0.03;100.00;98631.81;1742657;82;21086;-73
2022/01/07 07:02:45;;;;;;;24.03;13.73;;;;;;;0.03;100.00;98639.71;1743382;82;21008;-73
2022/01/07 07:05:12;;;;;;;20.50;10.93;;;;;;;0.06;100.00;98643.43;1742794;82;21047;-72
2022/01/07 07:07:39;;;;;;;19.57;10.60;;;;;;;0.08;100.00;98648.94;1742977;82;21047;-73
2022/01/07 07:10:07;;;;;;;19.33;10.33;;;;;;;0.08;100.00;98647.61;1742823;82;20993;-72
2022/01/07 07:12:35;;;;;;;20.10;10.47;;;;;;;0.10;100.00;98652.30;1743038;82;21043;-73
2022/01/07 07:15:02;;;;;;;21.70;10.87;;;;;;;0.14;100.00;98645.75;1745468;81;21053;-72
2022/01/07 07:17:29;;;;;;;20.47;10.70;;;;;;;0.22;100.00;98649.53;1745754;81;21048;-72
2022/01/07 07:19:56;;;;;;;19.87;10.63;;;;;;;0.26;100.00;98634.97;1720934;82;21008;-72
2022/01/07 07:22:25;;;;;;;18.47;10.50;;;;;;;0.28;100.00;98647.62;1716215;83;21024;-72
2022/01/07 07:24:52;;;;;;;19.10;10.17;;;;;;;0.27;100.00;98657.43;1715898;83;21064;-74
2022/01/07 07:27:19;;;;;;;19.80;11.53;;;;;;;0.25;100.00;98659.39;1716690;83;21547;-74
2022/01/07 07:29:46;;;;;;;20.67;11.13;;;;;;;0.25;100.00;98656.73;1707849;84;21001;-76
2022/01/07 07:32:16;;;;;;;21.13;12.13;;;;;;;0.25;100.00;98663.38;1708844;84;20980;-75
2022/01/07 07:37:24;;;;;;;22.57;12.60;;;;;;;0.28;100.00;98671.05;1667476;85;21060;-74
2022/01/07 07:39:51;;;;;;;21.27;11.53;;;;;;;0.32;100.00;98671.62;1664965;85;21145;-71
2022/01/07 07:42:18;;;;;;;20.83;11.10;;;;;;;0.34;100.00;98679.82;1665346;85;21056;-69
2022/01/07 07:44:47;;;;;;;21.43;11.60;;;;;;;0.44;100.00;98677.15;1683569;85;21577;-69
2022/01/07 07:47:14;;;;;;;18.23;10.00;;;;;;;0.55;100.00;98682.34;1664192;85;22288;-69
2022/01/07 07:49:41;;;;;;;20.53;10.30;;;;;;;0.67;100.00;98677.70;1664620;84;20997;-70
2022/01/07 07:52:08;;;;;;;19.67;10.13;;;;;;;0.81;100.00;98672.44;1687891;85;21573;-74
2022/01/07 07:54:36;;;;;;;18.87;9.83;;;;;;;0.91;100.00;98679.92;1642290;85;21060;-75
2022/01/07 07:57:03;;;;;;;19.97;10.47;;;;;;;0.97;100.00;98676.34;1665543;85;21357;-75
2022/01/07 07:59:31;;;;;;;19.50;10.60;;;;;;;1.03;100.00;98666.47;1659048;85;21556;-74
2022/01/07 08:01:58;;;;;;;19.50;10.70;;;;;;;1.07;100.00;98665.19;1686121;85;21594;-73
2022/01/07 08:04:25;;;;;;;20.57;11.67;;;;;;;1.10;100.00;98660.41;1660464;85;21075;-74
2022/01/07 08:06:52;;;;;;;20.97;10.90;;;;;;;1.13;100.00;98662.80;1683259;85;21097;-75
2022/01/07 08:09:21;;;;;;;19.37;10.17;;;;;;;1.16;100.00;98660.82;1683761;85;21644;-75
2022/01/07 08:11:55;;;;;;;20.00;11.70;;;;;;;1.16;100.00;98656.33;1660693;85;21824;-74
2022/01/07 08:17:06;;;;;;;18.93;10.50;;;;;;;1.32;100.00;98643.22;1683820;85;21054;-75
2022/01/07 08:19:34;;;;;;;18.83;10.30;;;;;;;1.40;100.00;98644.31;1647295;87;21027;-73
2022/01/07 08:22:02;;;;;;;20.90;11.70;;;;;;;1.47;100.00;98642.73;1712242;84;21015;-73
2022/01/07 08:24:29;;;;;;;24.40;13.70;;;;;;;1.56;100.00;98643.20;1630945;87;21014;-74
2022/01/07 08:26:57;;;;;;;18.00;9.10;;;;;;;1.64;100.00;98639.29;1658926;85;21002;-74
2022/01/07 08:29:29;;;;;;;18.10;9.10;;;;;;;1.69;100.00;98631.70;1688752;85;21014;-71
2022/01/07 08:34:54;;;;;;;15.97;8.30;;;;;;;1.81;100.00;98652.83;1707716;83;21530;-72
2022/01/07 08:37:25;;;;;;;16.93;8.90;;;;;;;1.83;100.00;98654.34;1708183;84;21009;-72
2022/01/07 08:39:53;;;;;;;14.70;8.37;;;;;;;1.83;100.00;98662.84;1714504;83;21062;-73
2022/01/07 08:42:22;;;;;;;15.23;8.03;;;;;;;1.87;100.00;98658.38;1714264;84;21011;-72
2022/01/07 08:44:54;;;;;;;14.73;7.83;;;;;;;1.99;100.00;98660.35;1684127;85;21078;-72
2022/01/07 08:47:23;;;;;;;15.57;8.40;;;;;;;2.03;100.00;98664.89;1725265;83;21034;-71
2022/01/07 08:49:51;;;;;;;17.23;8.70;;;;;;;2.00;100.00;98676.70;1713943;84;21070;-71
2022/01/07 08:52:20;;;;;;;15.53;8.60;;;;;;;2.03;100.00;98684.88;1700362;83;21053;-70
2022/01/07 08:54:50;;;;;;;16.40;8.57;;;;;;;2.03;100.00;98704.38;1714039;84;21083;-71
2022/01/07 08:57:21;;;;;;;17.77;8.20;;;;;;;2.11;100.00;98724.12;1683943;85;21039;-74
2022/01/07 08:59:48;;;;;;;11.50;7.03;;;;;;;2.19;100.00;98730.89;1684933;85;21082;-72
2022/01/07 09:02:15;;;;;;;13.70;7.73;;;;;;;2.28;100.00;98737.52;1679870;85;21034;-73
2022/01/07 09:04:43;;;;;;;13.97;7.67;;;;;;;2.33;100.00;98750.89;1674555;86;21047;-71
2022/01/07 09:07:17;;;;;;;14.63;7.57;;;;;;;2.32;100.00;98754.06;1674077;86;21127;-72
2022/01/07 09:09:44;;;;;;;18.00;9.23;;;;;;;2.26;100.00;98759.98;1674512;86;21059;-72
2022/01/07 09:12:11;;;;;;;19.17;9.73;;;;;;;2.24;100.00;98773.96;1674074;86;21004;-72
2022/01/07 09:14:38;;;;;;;13.20;7.27;;;;;;;2.29;100.00;98779.70;1673071;86;21130;-73
2022/01/07 09:17:06;;;;;;;15.07;8.93;;;;;;;2.38;100.00;98793.47;1675488;85;21027;-71
2022/01/07 09:19:33;;;;;;;11.03;6.80;;;;;;;2.53;100.00;98802.30;1750789;82;21033;-71
2022/01/07 09:22:00;;;;;;;12.97;7.10;;;;;;;2.52;100.00;98817.47;1757467;81;21044;-72
2022/01/07 09:24:29;;;;;;;12.37;6.80;;;;;;;2.35;100.00;98816.43;1757714;82;21002;-72
2022/01/07 09:26:58;;;;;;;13.77;7.30;;;;;;;2.30;100.00;98814.70;1757442;82;21097;-72
2022/01/07 09:29:27;;;;;;;11.83;6.77;;;;;;;2.35;100.00;98827.10;1732136;83;21156;-73
2022/01/07 09:31:55;;;;;;;11.70;6.60;;;;;;;2.40;100.00;98832.00;1683254;83;21053;-70
2022/01/07 09:34:22;;;;;;;11.37;6.23;;;;;;;2.39;100.00;98837.84;1732446;83;21017;-72
2022/01/07 09:36:49;;;;;;;12.40;6.50;;;;;;;2.40;100.00;98826.67;1700580;83;21037;-71
2022/01/07 09:39:17;;;;;;;11.07;6.20;;;;;;;2.37;100.00;98847.80;1670754;83;21780;-72
2022/01/07 09:41:45;;;;;;;10.17;5.83;;;;;;;2.28;100.00;98846.88;1717776;83;20986;-72
2022/01/07 09:44:12;;;;;;;11.63;5.90;;;;;;;2.21;100.00;98853.80;1717637;82;21017;-71
2022/01/07 09:46:40;;;;;;;10.17;5.73;;;;;;;2.11;100.00;98864.98;1717693;83;20994;-72
2022/01/07 09:49:06;;;;;;;11.77;6.20;;;;;;;1.96;100.00;98879.76;1717309;82;21037;-72
2022/01/07 09:51:37;;;;;;;11.80;6.30;;;;;;;1.84;100.00;98889.73;1694141;83;21009;-72
2022/01/07 09:54:05;;;;;;;12.17;6.77;;;;;;;1.77;100.00;98899.30;1693788;83;21061;-73
2022/01/07 09:56:34;;;;;;;13.67;7.17;;;;;;;1.72;100.00;98911.73;1692888;83;21294;-72
2022/01/07 09:59:05;;;;;;;13.90;7.27;;;;;;;1.67;100.00;98921.97;1717689;83;21080;-68
2022/01/07 10:01:31;;;;;;;10.67;5.57;;;;;;;1.61;100.00;98926.05;1690520;84;21104;-70
2022/01/07 10:03:58;;;;;;;9.80;5.73;;;;;;;1.52;100.00;98933.53;1703624;84;20991;-69
2022/01/07 10:06:27;;;;;;;8.87;5.10;;;;;;;1.43;100.00;98943.70;1680201;84;21058;-70
2022/01/07 10:09:10;;;;;;;10.03;5.37;;;;;;;1.33;100.00;98951.20;1680352;84;21090;-71
2022/01/07 10:11:38;;;;;;;8.80;5.00;;;;;;;1.24;100.00;98952.51;1680758;84;21099;-71
2022/01/07 10:14:20;;;;;;;7.43;4.70;;;;;;;1.17;100.00;98954.91;1703966;84;21583;-72
2022/01/07 10:16:54;;;;;;;9.10;4.93;;;;;;;1.15;100.00;98967.48;1703988;84;21043;-72
2022/01/07 10:19:39;;;;;;;8.73;4.83;;;;;;;1.08;100.00;98973.88;1623754;86;21045;-72
2022/01/07 10:22:15;;;;;;;10.70;5.10;;;;;;;1.00;100.00;98974.20;1609828;88;21115;-70
2022/01/07 10:25:00;;;;;;;8.20;4.70;;;;;;;0.96;100.00;98977.63;1650767;86;21091;-71
2022/01/07 10:27:36;;;;;;;7.70;4.40;;;;;;;0.97;100.00;98985.95;1642390;86;21625;-72
2022/01/07 10:30:11;;;;;;;9.53;5.17;;;;;;;1.04;100.00;98980.42;1643076;86;21073;-72
2022/01/07 10:32:38;;;;;;;9.80;5.27;;;;;;;1.20;100.00;98981.73;1662263;86;21018;-69
2022/01/07 10:35:20;;;;;;;9.17;5.50;;;;;;;1.44;100.00;98970.70;1641079;86;21026;-72
2022/01/07 10:38:01;;;;;;;12.10;6.03;;;;;;;1.63;100.00;98971.19;1641360;86;21025;-71
2022/01/07 10:40:35;;;;;;;11.20;6.07;;;;;;;1.81;100.00;98964.69;1641306;86;21083;-71
2022/01/07 10:43:25;;;;;;;15.07;7.13;;;;;;;1.88;100.00;98973.80;1663634;86;21108;-72
2022/01/07 10:45:56;;;;;;;13.17;7.33;;;;;;;1.79;100.00;98975.48;1578343;91;21070;-70
2022/01/07 10:48:43;;;;;;;13.73;6.73;;;;;;;1.59;100.00;98982.61;1558248;91;21082;-71
2022/01/07 10:51:12;;;;;;;11.70;5.63;;;;;;;1.42;100.00;98996.64;1538632;91;21142;-71
2022/01/07 10:53:39;;;;;;;9.90;5.53;;;;;;;1.27;100.00;99006.34;1558365;91;21034;-72
2022/01/07 10:56:15;;;;;;;9.90;5.27;;;;;;;1.18;100.00;99019.15;1578311;91;21055;-71
2022/01/07 10:58:53;;;;;;;7.80;5.07;;;;;;;1.26;100.00;99027.31;1578614;91;21102;-70
2022/01/07 11:01:34;;;;;;;8.50;4.60;;;;;;;1.46;100.00;99025.52;1574907;91;21106;-69
2022/01/07 11:04:02;;;;;;;11.97;5.43;;;;;;;1.63;100.00;99021.81;1569730;91;21104;-71
2022/01/07 11:06:29;;;;;;;14.17;6.20;;;;;;;1.70;100.00;99021.64;1549392;93;21152;-71
2022/01/07 11:08:57;;;;;;;9.97;5.23;;;;;;;1.71;100.00;99024.14;1569753;91;21557;-71
2022/01/07 11:11:25;;;;;;;10.47;5.57;;;;;;;1.79;100.00;99023.46;1569783;91;21132;-71
2022/01/07 11:13:52;;;;;;;11.33;5.67;;;;;;;1.84;100.00;99021.69;1549384;93;21202;-71
2022/01/07 11:16:19;;;;;;;12.07;6.30;;;;;;;1.86;100.00;99029.91;1571012;91;21005;-70
2022/01/07 11:18:48;;;;;;;15.60;7.60;;;;;;;1.82;100.00;99031.16;1605777;89;21009;-70
2022/01/07 11:21:18;;;;;;;14.40;7.07;;;;;;;1.76;100.00;99042.89;1629636;88;21074;-72
2022/01/07 11:23:44;;;;;;;12.80;6.43;;;;;;;1.73;100.00;99048.48;1629815;88;21571;-69
2022/01/07 11:26:13;;;;;;;13.17;6.70;;;;;;;1.67;100.00;99045.89;1583150;89;21118;-71
2022/01/07 11:29:02;;;;;;;13.30;6.80;;;;;;;1.57;100.00;99066.34;1603906;89;21065;-70
2022/01/07 11:31:30;;;;;;;17.43;7.63;;;;;;;1.49;100.00;99065.22;1630609;88;21054;-71
2022/01/07 11:34:22;;;;;;;15.03;7.07;;;;;;;1.42;100.00;99071.23;1606413;89;21098;-71